Meteo Giornale » Osservazioni meteo Messico » Mexico City-Licenci

ore: 12:05 - Osservazioni Meteo Mexico City-Licenci
Lat. 19° 26' N Lon. 99° 6' W Alt. 2238 metri s.l.m.

poco_nuvoloso America/Mexico_City

16 °C

Poco Nuvoloso

Temp. 24 Ore

3 °C

21 °C

Nord

5.5 Km/h

Dew point -2 °C

Umidità 29 %

Visibilità  8 Km

Il sole sorge alle ore 07:00

Il sole tramonta alle ore 18:01

Data e Ora Cielo e Fenomeni T °C DP °C Um. % Pres. hPa Vis. km Vento km/h
Oggi h: 12:05 poco_nuvoloso Poco Nuvoloso 16 -2 29 1028 8 N 5.5
Oggi h: 11:42 poco_nuvoloso Poco Nuvoloso 14 -2 32 1028 8 N 3.7
Oggi h: 10:43 sereno Sereno 13 -2 35 1029 8 N 3.7
Oggi h: 10:29 sereno Sereno 12 -2 37 1029 8 N 3.7
Oggi h: 09:43 sereno Sereno 10 -2 42 1030 8 SO 7.4
Oggi h: 09:17 sereno Sereno 8 -1 52 1030 8 N 5.5
Oggi h: 08:45 poco_nuvoloso Poco Nuvoloso 6 -1 60 1030 8 E 9.3
Oggi h: 07:43 molto_nuvoloso Molto Nuvoloso 4 -1 69 1029 8 E 9.3
Oggi h: 07:42 molto_nuvoloso Molto Nuvoloso 4 -1 69 1029 8 E 9.3
Oggi h: 06:43 sereno Sereno 3 -1 74 1028 11 E/NE 9.3
Oggi h: 04:55 sereno Sereno 3 -1 74 1027 11 E 7.4
Oggi h: 03:44 sereno Sereno 4 -1 69 1027 11 E 9.3
Oggi h: 02:48 sereno Sereno 5 -3 56 1027 11 E 7.4
Oggi h: 01:50 sereno Sereno 6 -2 56 1027 11 E 7.4
Oggi h: 00:50 sereno Sereno 7 -3 48 1028 13 E 9.3
Ieri h: 23:48 sereno Sereno 8 -4 42 1028 10 E 7.4
Ieri h: 22:45 sereno Sereno 11 -5 32 1028 10 N 5.5
Ieri h: 21:45 sereno Sereno 12 -5 30 1027 10 O/NO 14.8
Ieri h: 20:42 sereno Sereno 13 -6 26 1027 10 O 13
Ieri h: 20:39 sereno Sereno 13 -6 26 1027 10 O 11.1
Ieri h: 19:41 sereno Sereno 15 -7 21 1026 10 NO 7.4
Ieri h: 19:14 sereno Sereno 16 -8 18 1026 10 N/NE 18.5
Ieri h: 18:43 sereno Sereno 18 -9 14 1026 10 N 14.8
Ieri h: 17:44 sereno Sereno 19 -11 12 1025 14 N/NO 13
Ieri h: 16:43 sereno Sereno 20 -14 8 1025 14 N 11.1
Ieri h: 15:41 sereno Sereno 21 -15 7 1025 14 NO 9.3
Ieri h: 14:46 sereno Sereno 21 -16 7 1025 14 O 13
Ieri h: 13:49 sereno Sereno 20 -17 6 1026 10 N/NE 14.8
Ieri h: 13:44 sereno Sereno 20 -16 7 1026 10 N/NE 16.7
Ieri h: 12:42 sereno Sereno 18 -11 12 1028 13 N/NO 7.4
Ieri h: 12:35 sereno Sereno 18 -11 12 1028 13 NO 11.1
Ieri h: 11:52 sereno Sereno 16 -10 15 1029 8 NO 11.1